createdAt,value
2023-05-24T00:01:30.855Z,3.58
2023-05-24T00:06:34.976Z,3.67
2023-05-24T00:11:36.664Z,5.10
2023-05-24T00:16:38.358Z,3.17
2023-05-24T00:21:40.079Z,3.90
2023-05-24T00:26:41.728Z,5.18
2023-05-24T00:31:43.475Z,4.05
2023-05-24T00:36:45.273Z,4.28
2023-05-24T00:41:46.958Z,4.40
2023-05-24T00:46:48.765Z,4.75
2023-05-24T00:51:53.471Z,3.85
2023-05-24T00:56:56.691Z,3.75
2023-05-24T01:02:00.650Z,4.45
2023-05-24T01:07:02.287Z,4.20
2023-05-24T01:12:07.072Z,3.47
2023-05-24T01:17:52.220Z,3.92
2023-05-24T01:23:12.728Z,3.75
2023-05-24T01:28:17.349Z,2.92
2023-05-24T01:33:19.531Z,4.35
2023-05-24T01:38:21.189Z,2.85
2023-05-24T01:43:31.577Z,3.85
2023-05-24T01:48:42.102Z,3.10
2023-05-24T01:53:47.718Z,3.20
2023-05-24T01:58:52.878Z,3.00
2023-05-24T02:03:55.595Z,3.63
2023-05-24T02:08:57.324Z,3.15
2023-05-24T02:13:58.973Z,2.92
2023-05-24T02:19:00.634Z,3.65
2023-05-24T02:24:02.314Z,2.78
2023-05-24T02:29:04.535Z,2.63
2023-05-24T02:34:06.217Z,3.85
2023-05-24T02:39:07.895Z,3.55
2023-05-24T02:44:09.754Z,3.00
2023-05-24T02:49:11.460Z,3.15
2023-05-24T02:54:13.106Z,4.10
2023-05-24T02:59:15.063Z,3.17
2023-05-24T03:04:17.379Z,2.47
2023-05-24T03:09:19.180Z,3.55
2023-05-24T03:14:24.000Z,2.58
2023-05-24T03:19:26.593Z,3.25
2023-05-24T03:24:28.566Z,3.75
2023-05-24T03:29:30.244Z,2.88
2023-05-24T03:34:32.375Z,3.15
2023-05-24T03:39:34.540Z,3.17
2023-05-24T03:44:50.502Z,3.38
2023-05-24T03:49:52.267Z,2.92
2023-05-24T03:54:53.985Z,2.95
2023-05-24T03:59:55.925Z,2.08
2023-05-24T04:04:57.842Z,2.90
2023-05-24T04:10:00.030Z,3.03
2023-05-24T04:15:01.999Z,3.35
2023-05-24T04:20:05.812Z,3.60
2023-05-24T04:25:10.060Z,3.67
2023-05-24T04:30:12.228Z,2.22
2023-05-24T04:35:14.307Z,3.45
2023-05-24T04:40:20.949Z,2.70
2023-05-24T04:45:22.702Z,2.55
2023-05-24T04:50:24.463Z,2.88
2023-05-24T04:55:26.128Z,2.63
2023-05-24T05:00:27.815Z,2.72
2023-05-24T05:05:29.590Z,2.30
2023-05-24T05:10:31.257Z,2.85
2023-05-24T05:15:33.037Z,4.03
2023-05-24T05:20:34.909Z,2.53
2023-05-24T05:25:36.653Z,3.50
2023-05-24T05:30:38.335Z,3.65
2023-05-24T05:35:40.077Z,3.15
2023-05-24T05:40:41.975Z,2.47
2023-05-24T05:45:43.788Z,2.75
2023-05-24T05:50:45.436Z,3.10
2023-05-24T05:55:47.113Z,3.47
2023-05-24T06:00:48.784Z,4.15
2023-05-24T06:05:50.489Z,3.03
2023-05-24T06:10:53.062Z,3.90
2023-05-24T06:15:55.445Z,3.33
2023-05-24T06:20:57.143Z,3.38
2023-05-24T06:25:59.133Z,3.50
2023-05-24T06:31:00.892Z,3.10
2023-05-24T06:36:02.624Z,4.18
2023-05-24T06:41:04.313Z,2.90
2023-05-24T06:46:06.969Z,2.78
2023-05-24T06:51:08.691Z,3.42
2023-05-24T06:56:10.472Z,3.28
2023-05-24T07:01:12.218Z,3.97
2023-05-24T07:06:15.740Z,2.83
2023-05-24T07:11:17.512Z,3.22
2023-05-24T07:16:19.438Z,3.38
2023-05-24T07:21:21.568Z,3.15
2023-05-24T07:26:23.802Z,3.80
2023-05-24T07:31:26.653Z,3.35
2023-05-24T07:36:31.588Z,3.38
2023-05-24T07:41:37.158Z,3.08
2023-05-24T07:46:38.941Z,3.30
2023-05-24T07:51:40.607Z,3.60
2023-05-24T07:56:42.974Z,3.70
2023-05-24T08:01:44.662Z,3.25
2023-05-24T08:06:46.764Z,3.70
2023-05-24T08:11:48.565Z,2.97
2023-05-24T08:16:50.235Z,3.97
2023-05-24T08:21:52.200Z,3.80
2023-05-24T08:26:53.869Z,4.07
2023-05-24T08:31:55.618Z,3.55
2023-05-24T08:36:57.900Z,4.30
2023-05-24T08:47:09.061Z,3.80
2023-05-24T08:52:12.743Z,4.88
2023-05-24T08:57:15.868Z,4.38
2023-05-24T09:02:18.650Z,3.90
2023-05-24T09:07:24.335Z,4.22
2023-05-24T09:12:36.558Z,3.67
2023-05-24T09:17:43.457Z,3.60
2023-05-24T09:22:47.526Z,3.78
2023-05-24T09:27:51.553Z,3.70
2023-05-24T09:33:01.268Z,4.32
2023-05-24T09:38:04.031Z,4.22
2023-05-24T09:43:10.139Z,4.28
2023-05-24T09:48:13.721Z,4.65
2023-05-24T09:53:19.384Z,4.75
2023-05-24T09:58:21.915Z,4.78
2023-05-24T10:03:25.381Z,4.25
2023-05-24T10:08:28.020Z,4.65
2023-05-24T10:13:29.772Z,4.70
2023-05-24T10:18:31.950Z,4.03
2023-05-24T10:23:35.650Z,4.13
2023-05-24T10:29:01.216Z,4.47
2023-05-24T10:34:08.651Z,4.70
2023-05-24T10:39:13.869Z,3.90
2023-05-24T10:44:19.523Z,3.80
2023-05-24T10:49:22.667Z,3.92
2023-05-24T10:54:27.370Z,3.50
2023-05-24T10:59:37.481Z,3.53
2023-05-24T11:04:43.552Z,3.45
2023-05-24T11:09:52.780Z,3.60
2023-05-24T11:14:54.529Z,3.28
2023-05-24T11:19:56.829Z,3.30
2023-05-24T11:25:02.758Z,3.20
2023-05-24T11:30:06.057Z,3.70
2023-05-24T11:35:11.080Z,5.13
2023-05-24T11:40:13.829Z,3.92
2023-05-24T11:45:17.759Z,3.80
2023-05-24T11:50:26.614Z,3.72
2023-05-24T11:55:30.722Z,6.13
2023-05-24T12:00:32.631Z,3.95
2023-05-24T12:05:34.466Z,3.42
2023-05-24T12:10:37.866Z,3.85
2023-05-24T12:15:39.697Z,3.88
2023-05-24T12:20:42.457Z,4.82
2023-05-24T12:25:44.490Z,4.20
2023-05-24T12:30:46.637Z,3.75
2023-05-24T12:35:48.736Z,3.38
2023-05-24T12:41:07.441Z,3.83
2023-05-24T12:46:13.311Z,3.92
2023-05-24T12:51:15.002Z,3.78
2023-05-24T12:56:17.035Z,3.45
2023-05-24T13:01:19.190Z,4.95
2023-05-24T13:06:21.051Z,3.50
2023-05-24T13:11:25.212Z,4.95
2023-05-24T13:16:27.071Z,3.75
2023-05-24T13:21:29.420Z,3.53
2023-05-24T13:26:31.229Z,4.10
2023-05-24T13:31:33.361Z,4.15
2023-05-24T13:36:35.166Z,4.57
2023-05-24T13:41:37.222Z,3.42
2023-05-24T13:46:39.288Z,3.90
2023-05-24T13:51:41.096Z,3.80
2023-05-24T13:56:44.816Z,3.40
2023-05-24T14:01:46.674Z,4.15
2023-05-24T14:06:48.335Z,3.13
2023-05-24T14:11:50.145Z,3.17
2023-05-24T14:16:54.977Z,4.00
2023-05-24T14:21:56.746Z,4.07
2023-05-24T14:26:58.474Z,3.70
2023-05-24T14:32:00.296Z,3.65
2023-05-24T14:37:02.252Z,3.83
2023-05-24T14:42:04.092Z,4.32
2023-05-24T14:47:06.068Z,3.60
2023-05-24T14:52:07.723Z,3.45
2023-05-24T14:57:09.527Z,3.28
2023-05-24T15:02:11.662Z,3.50
2023-05-24T15:07:13.334Z,3.85
2023-05-24T15:12:15.158Z,4.30
2023-05-24T15:17:17.549Z,3.92
2023-05-24T15:22:20.618Z,4.20
2023-05-24T15:27:22.287Z,4.28
2023-05-24T15:32:23.962Z,3.35
2023-05-24T15:37:25.915Z,4.25
2023-05-24T15:42:27.709Z,4.45
2023-05-24T15:47:30.432Z,3.67
2023-05-24T15:52:32.203Z,4.28
2023-05-24T15:57:33.864Z,3.55
2023-05-24T16:02:35.771Z,3.83
2023-05-24T16:07:37.489Z,3.15
2023-05-24T16:12:39.163Z,2.95
2023-05-24T16:17:40.921Z,4.53
2023-05-24T16:22:51.475Z,4.38
2023-05-24T16:27:55.508Z,4.03
2023-05-24T16:32:57.283Z,3.45
2023-05-24T16:37:59.093Z,3.67
2023-05-24T16:43:00.728Z,3.17
2023-05-24T16:48:02.577Z,4.13
2023-05-24T16:53:06.470Z,4.03
2023-05-24T16:58:08.468Z,3.70
2023-05-24T17:03:10.355Z,3.90
2023-05-24T17:08:12.168Z,3.47
2023-05-24T17:13:13.831Z,3.53
2023-05-24T17:18:15.725Z,3.00
2023-05-24T17:23:18.586Z,3.45
2023-05-24T17:28:27.512Z,4.03
2023-05-24T17:33:30.708Z,3.70
2023-05-24T17:38:37.695Z,3.50
2023-05-24T17:43:40.529Z,3.25
2023-05-24T17:48:43.501Z,3.83
2023-05-24T17:53:46.476Z,3.10
2023-05-24T17:58:48.599Z,4.03
2023-05-24T18:03:50.249Z,3.00
2023-05-24T18:08:51.920Z,3.25
2023-05-24T18:13:53.648Z,3.13
2023-05-24T18:18:55.340Z,3.55
2023-05-24T18:23:57.181Z,2.88
2023-05-24T18:28:58.815Z,3.83
2023-05-24T18:34:01.909Z,3.85
2023-05-24T18:39:04.237Z,3.92
2023-05-24T18:44:06.009Z,3.63
2023-05-24T18:49:10.988Z,2.92
2023-05-24T18:54:13.810Z,3.42
2023-05-24T18:59:16.847Z,3.80
2023-05-24T19:04:18.539Z,4.45
2023-05-24T19:09:20.194Z,3.65
2023-05-24T19:14:22.174Z,3.33
2023-05-24T19:19:23.830Z,3.70
2023-05-24T19:24:26.028Z,4.13
2023-05-24T19:29:28.235Z,2.90
2023-05-24T19:34:31.960Z,4.40
2023-05-24T19:39:33.633Z,4.30
2023-05-24T19:44:35.298Z,4.28
2023-05-24T19:49:37.003Z,4.00
2023-05-24T19:54:38.640Z,5.03
2023-05-24T19:59:40.439Z,4.32
2023-05-24T20:04:43.819Z,5.40
2023-05-24T20:09:45.562Z,5.03
2023-05-24T20:14:47.284Z,4.05
2023-05-24T20:19:48.963Z,4.57
2023-05-24T20:24:50.741Z,4.78
2023-05-24T20:29:52.399Z,5.53
2023-05-24T20:34:54.055Z,4.70
2023-05-24T20:39:56.092Z,6.38
2023-05-24T20:44:58.106Z,6.70
2023-05-24T20:49:59.795Z,6.78
2023-05-24T20:55:01.724Z,6.55
2023-05-24T21:00:04.571Z,6.30
2023-05-24T21:05:06.748Z,6.15
2023-05-24T21:10:09.432Z,6.25
2023-05-24T21:15:11.245Z,6.28
2023-05-24T21:20:12.935Z,5.97
2023-05-24T21:25:14.749Z,5.32
2023-05-24T21:30:16.509Z,6.80
2023-05-24T21:35:18.257Z,6.93
2023-05-24T21:40:19.908Z,7.18
2023-05-24T21:45:21.607Z,5.82
2023-05-24T21:50:23.250Z,6.97
2023-05-24T21:55:24.972Z,8.10
2023-05-24T22:00:27.219Z,6.90
2023-05-24T22:05:28.898Z,8.77
2023-05-24T22:10:30.573Z,8.27
2023-05-24T22:15:32.261Z,8.85
2023-05-24T22:20:34.162Z,7.75
2023-05-24T22:25:36.312Z,5.68
2023-05-24T22:30:38.054Z,7.53
2023-05-24T22:35:40.075Z,7.93
2023-05-24T22:40:42.406Z,7.05
2023-05-24T22:45:44.372Z,7.95
2023-05-24T22:50:46.738Z,7.75
2023-05-24T22:55:48.414Z,6.43
2023-05-24T23:00:51.356Z,6.45
2023-05-24T23:05:53.726Z,7.03
2023-05-24T23:10:58.210Z,7.43
2023-05-24T23:16:00.279Z,8.25
2023-05-24T23:21:03.088Z,9.13
2023-05-24T23:26:04.794Z,7.28
2023-05-24T23:31:06.548Z,7.68
2023-05-24T23:36:09.991Z,7.55
2023-05-24T23:41:11.825Z,7.45
2023-05-24T23:46:17.214Z,8.30
2023-05-24T23:51:20.331Z,7.85
2023-05-24T23:56:22.228Z,8.02
